sensor_id;sensor_type;location;lat;lon;timestamp;temperature;humidity
46378;DHT22;32083;47.360;9.650;2022-11-20T00:00:11;7.60;99.90
46378;DHT22;32083;47.360;9.650;2022-11-20T00:02:37;7.70;99.90
46378;DHT22;32083;47.360;9.650;2022-11-20T00:05:04;7.70;99.90
46378;DHT22;32083;47.360;9.650;2022-11-20T00:07:30;7.70;99.90
46378;DHT22;32083;47.360;9.650;2022-11-20T00:09:55;7.70;99.90
46378;DHT22;32083;47.360;9.650;2022-11-20T00:12:21;7.70;99.90
46378;DHT22;32083;47.360;9.650;2022-11-20T00:14:47;7.70;99.90
46378;DHT22;32083;47.360;9.650;2022-11-20T00:17:13;7.70;99.90
46378;DHT22;32083;47.360;9.650;2022-11-20T00:19:39;7.70;99.90
46378;DHT22;32083;47.360;9.650;2022-11-20T00:22:05;7.60;99.90
46378;DHT22;32083;47.360;9.650;2022-11-20T00:24:31;7.60;99.90
46378;DHT22;32083;47.360;9.650;2022-11-20T00:26:57;7.60;99.90
46378;DHT22;32083;47.360;9.650;2022-11-20T00:29:23;7.50;99.90
46378;DHT22;32083;47.360;9.650;2022-11-20T00:31:49;7.60;99.90
46378;DHT22;32083;47.360;9.650;2022-11-20T00:34:15;7.60;99.90
46378;DHT22;32083;47.360;9.650;2022-11-20T00:36:41;7.50;99.90
46378;DHT22;32083;47.360;9.650;2022-11-20T00:39:07;7.50;99.90
46378;DHT22;32083;47.360;9.650;2022-11-20T00:41:33;7.50;99.90
46378;DHT22;32083;47.360;9.650;2022-11-20T00:43:59;7.50;99.90
46378;DHT22;32083;47.360;9.650;2022-11-20T00:46:27;7.40;99.90
46378;DHT22;32083;47.360;9.650;2022-11-20T00:48:53;7.40;99.90
46378;DHT22;32083;47.360;9.650;2022-11-20T00:51:22;7.40;99.90
46378;DHT22;32083;47.360;9.650;2022-11-20T00:53:48;7.40;99.90
46378;DHT22;32083;47.360;9.650;2022-11-20T00:56:16;7.40;99.90
46378;DHT22;32083;47.360;9.650;2022-11-20T00:58:46;7.40;99.90
46378;DHT22;32083;47.360;9.650;2022-11-20T06:01:44;6.70;99.90
46378;DHT22;32083;47.360;9.650;2022-11-20T06:04:10;6.60;99.90
46378;DHT22;32083;47.360;9.650;2022-11-20T06:06:36;6.60;99.90
46378;DHT22;32083;47.360;9.650;2022-11-20T06:09:02;6.60;99.90
46378;DHT22;32083;47.360;9.650;2022-11-20T06:11:28;6.60;99.90
46378;DHT22;32083;47.360;9.650;2022-11-20T06:13:54;6.60;99.90
46378;DHT22;32083;47.360;9.650;2022-11-20T06:16:20;6.60;99.90
46378;DHT22;32083;47.360;9.650;2022-11-20T06:18:47;6.70;99.90
46378;DHT22;32083;47.360;9.650;2022-11-20T06:21:19;6.70;99.90
46378;DHT22;32083;47.360;9.650;2022-11-20T06:23:45;6.70;99.90
46378;DHT22;32083;47.360;9.650;2022-11-20T06:26:16;6.70;99.90
46378;DHT22;32083;47.360;9.650;2022-11-20T06:28:43;6.70;99.90
46378;DHT22;32083;47.360;9.650;2022-11-20T06:31:12;6.70;99.90
46378;DHT22;32083;47.360;9.650;2022-11-20T06:33:39;6.70;99.90
46378;DHT22;32083;47.360;9.650;2022-11-20T06:36:05;6.70;99.90
46378;DHT22;32083;47.360;9.650;2022-11-20T06:38:31;6.80;99.90
46378;DHT22;32083;47.360;9.650;2022-11-20T06:40:59;6.70;99.90
46378;DHT22;32083;47.360;9.650;2022-11-20T06:43:30;6.80;99.90
46378;DHT22;32083;47.360;9.650;2022-11-20T06:45:57;6.70;99.90
46378;DHT22;32083;47.360;9.650;2022-11-20T06:48:25;6.80;99.90
46378;DHT22;32083;47.360;9.650;2022-11-20T06:50:51;6.80;99.90
46378;DHT22;32083;47.360;9.650;2022-11-20T06:53:18;6.80;99.90
46378;DHT22;32083;47.360;9.650;2022-11-20T06:55:45;6.80;99.90
46378;DHT22;32083;47.360;9.650;2022-11-20T06:58:12;6.70;99.90
46378;DHT22;32083;47.360;9.650;2022-11-20T07:00:38;6.60;99.90
46378;DHT22;32083;47.360;9.650;2022-11-20T07:03:05;6.50;99.90
46378;DHT22;32083;47.360;9.650;2022-11-20T07:05:33;6.50;99.90
46378;DHT22;32083;47.360;9.650;2022-11-20T07:07:59;6.40;99.90
46378;DHT22;32083;47.360;9.650;2022-11-20T07:23:24;6.30;99.90
46378;DHT22;32083;47.360;9.650;2022-11-20T07:31:19;6.50;99.90
46378;DHT22;32083;47.360;9.650;2022-11-20T07:46:42;6.50;99.90
46378;DHT22;32083;47.360;9.650;2022-11-20T07:49:14;6.50;99.90
46378;DHT22;32083;47.360;9.650;2022-11-20T07:51:43;6.50;99.90
46378;DHT22;32083;47.360;9.650;2022-11-20T07:54:11;6.50;99.90
46378;DHT22;32083;47.360;9.650;2022-11-20T07:56:37;6.50;99.90
46378;DHT22;32083;47.360;9.650;2022-11-20T07:59:06;6.50;99.90
46378;DHT22;32083;47.360;9.650;2022-11-20T08:01:33;6.50;99.90
46378;DHT22;32083;47.360;9.650;2022-11-20T08:04:07;6.50;99.90
46378;DHT22;32083;47.360;9.650;2022-11-20T08:06:34;6.50;99.90
46378;DHT22;32083;47.360;9.650;2022-11-20T08:09:05;6.60;99.90
46378;DHT22;32083;47.360;9.650;2022-11-20T08:11:42;6.60;99.90
46378;DHT22;32083;47.360;9.650;2022-11-20T08:14:28;6.70;99.90
46378;DHT22;32083;47.360;9.650;2022-11-20T08:16:55;6.70;99.90
46378;DHT22;32083;47.360;9.650;2022-11-20T08:19:23;6.60;99.90
46378;DHT22;32083;47.360;9.650;2022-11-20T08:21:50;6.70;99.90
46378;DHT22;32083;47.360;9.650;2022-11-20T08:24:19;6.80;99.90
46378;DHT22;32083;47.360;9.650;2022-11-20T08:26:48;6.80;99.90
46378;DHT22;32083;47.360;9.650;2022-11-20T08:29:17;6.80;99.90
46378;DHT22;32083;47.360;9.650;2022-11-20T08:31:50;6.90;99.90
46378;DHT22;32083;47.360;9.650;2022-11-20T08:34:27;7.00;99.90
46378;DHT22;32083;47.360;9.650;2022-11-20T08:36:57;7.00;99.90
46378;DHT22;32083;47.360;9.650;2022-11-20T08:39:27;7.10;99.90
46378;DHT22;32083;47.360;9.650;2022-11-20T08:42:17;7.10;99.90
46378;DHT22;32083;47.360;9.650;2022-11-20T08:58:16;7.20;99.90
46378;DHT22;32083;47.360;9.650;2022-11-20T09:00:42;7.30;99.90
46378;DHT22;32083;47.360;9.650;2022-11-20T09:03:08;7.30;99.90
46378;DHT22;32083;47.360;9.650;2022-11-20T09:05:34;7.30;99.90
46378;DHT22;32083;47.360;9.650;2022-11-20T09:08:00;7.20;99.90
46378;DHT22;32083;47.360;9.650;2022-11-20T09:10:45;7.20;99.90
46378;DHT22;32083;47.360;9.650;2022-11-20T09:39:43;7.40;99.90
46378;DHT22;32083;47.360;9.650;2022-11-20T09:42:18;7.50;99.90
46378;DHT22;32083;47.360;9.650;2022-11-20T09:50:26;7.70;99.90
46378;DHT22;32083;47.360;9.650;2022-11-20T09:55:29;8.00;99.90
46378;DHT22;32083;47.360;9.650;2022-11-20T09:57:58;8.10;99.90
46378;DHT22;32083;47.360;9.650;2022-11-20T10:00:25;8.20;99.90
46378;DHT22;32083;47.360;9.650;2022-11-20T10:03:00;8.20;99.90
46378;DHT22;32083;47.360;9.650;2022-11-20T10:05:39;8.30;99.90
46378;DHT22;32083;47.360;9.650;2022-11-20T10:08:17;8.30;99.90
46378;DHT22;32083;47.360;9.650;2022-11-20T10:11:07;8.40;99.90
46378;DHT22;32083;47.360;9.650;2022-11-20T10:14:15;8.40;99.90
46378;DHT22;32083;47.360;9.650;2022-11-20T10:25:24;8.40;99.90
46378;DHT22;32083;47.360;9.650;2022-11-20T10:27:57;8.40;99.90
46378;DHT22;32083;47.360;9.650;2022-11-20T10:30:48;8.40;99.90
46378;DHT22;32083;47.360;9.650;2022-11-20T10:41:24;8.40;99.90
46378;DHT22;32083;47.360;9.650;2022-11-20T10:44:12;8.40;99.90
46378;DHT22;32083;47.360;9.650;2022-11-20T10:46:45;8.40;99.90
46378;DHT22;32083;47.360;9.650;2022-11-20T10:49:13;8.40;99.80
46378;DHT22;32083;47.360;9.650;2022-11-20T10:51:54;8.50;99.90
46378;DHT22;32083;47.360;9.650;2022-11-20T10:57:03;8.60;99.90
46378;DHT22;32083;47.360;9.650;2022-11-20T11:02:33;8.70;99.90
46378;DHT22;32083;47.360;9.650;2022-11-20T11:05:08;8.80;99.90
46378;DHT22;32083;47.360;9.650;2022-11-20T11:07:39;8.80;99.90
46378;DHT22;32083;47.360;9.650;2022-11-20T11:10:18;8.80;99.90
46378;DHT22;32083;47.360;9.650;2022-11-20T11:12:48;8.90;99.90
46378;DHT22;32083;47.360;9.650;2022-11-20T11:15:29;8.90;99.90
46378;DHT22;32083;47.360;9.650;2022-11-20T11:17:56;8.90;99.40
46378;DHT22;32083;47.360;9.650;2022-11-20T11:20:24;8.90;99.90
46378;DHT22;32083;47.360;9.650;2022-11-20T11:22:56;9.00;99.10
46378;DHT22;32083;47.360;9.650;2022-11-20T11:27:52;9.10;99.20
46378;DHT22;32083;47.360;9.650;2022-11-20T11:30:20;9.20;99.00
46378;DHT22;32083;47.360;9.650;2022-11-20T11:32:46;9.30;99.10
46378;DHT22;32083;47.360;9.650;2022-11-20T11:35:25;9.30;98.60
46378;DHT22;32083;47.360;9.650;2022-11-20T11:37:53;9.30;97.80
46378;DHT22;32083;47.360;9.650;2022-11-20T11:40:21;9.40;98.40
46378;DHT22;32083;47.360;9.650;2022-11-20T11:42:54;9.40;98.20
46378;DHT22;32083;47.360;9.650;2022-11-20T11:45:20;9.40;97.50
46378;DHT22;32083;47.360;9.650;2022-11-20T11:47:47;9.40;97.40
46378;DHT22;32083;47.360;9.650;2022-11-20T11:50:17;9.50;97.70
46378;DHT22;32083;47.360;9.650;2022-11-20T11:55:45;9.50;95.30
46378;DHT22;32083;47.360;9.650;2022-11-20T11:58:46;9.60;95.50
46378;DHT22;32083;47.360;9.650;2022-11-20T12:01:35;9.50;94.10
46378;DHT22;32083;47.360;9.650;2022-11-20T12:07:36;9.60;96.20
46378;DHT22;32083;47.360;9.650;2022-11-20T12:09:57;9.60;96.30
46378;DHT22;32083;47.360;9.650;2022-11-20T12:12:38;9.60;95.00
46378;DHT22;32083;47.360;9.650;2022-11-20T12:15:12;9.60;94.80
46378;DHT22;32083;47.360;9.650;2022-11-20T12:17:38;9.70;94.80
46378;DHT22;32083;47.360;9.650;2022-11-20T12:20:12;9.70;93.60
46378;DHT22;32083;47.360;9.650;2022-11-20T12:22:48;9.70;93.10
46378;DHT22;32083;47.360;9.650;2022-11-20T12:25:34;9.70;93.50
46378;DHT22;32083;47.360;9.650;2022-11-20T12:31:10;9.80;93.70
46378;DHT22;32083;47.360;9.650;2022-11-20T12:33:48;9.80;92.90
46378;DHT22;32083;47.360;9.650;2022-11-20T12:36:33;9.80;94.50
46378;DHT22;32083;47.360;9.650;2022-11-20T13:07:08;9.40;94.60
46378;DHT22;32083;47.360;9.650;2022-11-20T13:09:37;9.30;95.00
46378;DHT22;32083;47.360;9.650;2022-11-20T13:12:13;9.20;94.70
46378;DHT22;32083;47.360;9.650;2022-11-20T13:14:55;9.30;95.40
46378;DHT22;32083;47.360;9.650;2022-11-20T13:17:35;9.20;95.20
46378;DHT22;32083;47.360;9.650;2022-11-20T13:20:06;9.30;95.30
46378;DHT22;32083;47.360;9.650;2022-11-20T13:25:25;9.30;94.90
46378;DHT22;32083;47.360;9.650;2022-11-20T13:27:52;9.40;94.60
46378;DHT22;32083;47.360;9.650;2022-11-20T13:30:23;9.40;94.80
46378;DHT22;32083;47.360;9.650;2022-11-20T13:32:56;9.40;94.40
46378;DHT22;32083;47.360;9.650;2022-11-20T13:38:06;9.40;94.80
46378;DHT22;32083;47.360;9.650;2022-11-20T13:40:33;9.50;94.60
46378;DHT22;32083;47.360;9.650;2022-11-20T13:43:16;9.50;94.90
46378;DHT22;32083;47.360;9.650;2022-11-20T13:45:58;9.50;94.90
46378;DHT22;32083;47.360;9.650;2022-11-20T13:48:28;9.50;93.50
46378;DHT22;32083;47.360;9.650;2022-11-20T13:56:24;9.30;94.60
46378;DHT22;32083;47.360;9.650;2022-11-20T13:58:59;9.20;94.80
46378;DHT22;32083;47.360;9.650;2022-11-20T14:01:30;9.10;94.90
46378;DHT22;32083;47.360;9.650;2022-11-20T14:04:11;9.00;95.10
46378;DHT22;32083;47.360;9.650;2022-11-20T14:06:43;9.10;95.20
46378;DHT22;32083;47.360;9.650;2022-11-20T14:09:30;9.10;95.10
46378;DHT22;32083;47.360;9.650;2022-11-20T14:11:57;9.10;94.90
46378;DHT22;32083;47.360;9.650;2022-11-20T14:14:25;9.20;95.30
46378;DHT22;32083;47.360;9.650;2022-11-20T14:17:17;9.20;94.40
46378;DHT22;32083;47.360;9.650;2022-11-20T14:19:45;9.30;94.90
46378;DHT22;32083;47.360;9.650;2022-11-20T14:22:21;9.30;94.30
46378;DHT22;32083;47.360;9.650;2022-11-20T14:24:49;9.40;94.00
46378;DHT22;32083;47.360;9.650;2022-11-20T14:27:19;9.40;94.30
46378;DHT22;32083;47.360;9.650;2022-11-20T14:29:47;9.40;93.90
46378;DHT22;32083;47.360;9.650;2022-11-20T14:32:17;9.40;93.90
46378;DHT22;32083;47.360;9.650;2022-11-20T14:34:46;9.40;93.50
46378;DHT22;32083;47.360;9.650;2022-11-20T14:37:21;9.40;93.20
46378;DHT22;32083;47.360;9.650;2022-11-20T14:39:54;9.40;93.10
46378;DHT22;32083;47.360;9.650;2022-11-20T14:42:23;9.50;92.90
46378;DHT22;32083;47.360;9.650;2022-11-20T14:44:51;9.50;92.80
46378;DHT22;32083;47.360;9.650;2022-11-20T14:47:23;9.50;92.90
46378;DHT22;32083;47.360;9.650;2022-11-20T14:49:51;9.50;93.00
46378;DHT22;32083;47.360;9.650;2022-11-20T14:52:21;9.40;93.20
46378;DHT22;32083;47.360;9.650;2022-11-20T14:54:49;9.40;93.30
46378;DHT22;32083;47.360;9.650;2022-11-20T14:57:32;9.40;93.80
46378;DHT22;32083;47.360;9.650;2022-11-20T15:02:46;9.30;93.30
46378;DHT22;32083;47.360;9.650;2022-11-20T15:05:13;9.20;93.40
46378;DHT22;32083;47.360;9.650;2022-11-20T15:07:42;9.10;93.70
46378;DHT22;32083;47.360;9.650;2022-11-20T15:10:26;9.10;93.80
46378;DHT22;32083;47.360;9.650;2022-11-20T15:13:00;8.90;94.50
46378;DHT22;32083;47.360;9.650;2022-11-20T15:15:46;8.90;94.30
46378;DHT22;32083;47.360;9.650;2022-11-20T15:18:19;8.80;95.10
46378;DHT22;32083;47.360;9.650;2022-11-20T15:20:47;8.70;95.30
46378;DHT22;32083;47.360;9.650;2022-11-20T15:23:15;8.70;95.20
46378;DHT22;32083;47.360;9.650;2022-11-20T15:25:43;8.70;95.60
46378;DHT22;32083;47.360;9.650;2022-11-20T15:28:31;8.60;95.90
46378;DHT22;32083;47.360;9.650;2022-11-20T15:30:57;8.50;96.10
46378;DHT22;32083;47.360;9.650;2022-11-20T15:33:23;8.50;96.50
46378;DHT22;32083;47.360;9.650;2022-11-20T15:35:49;8.40;96.70
46378;DHT22;32083;47.360;9.650;2022-11-20T15:38:15;8.20;97.30
46378;DHT22;32083;47.360;9.650;2022-11-20T15:40:41;8.20;97.40
46378;DHT22;32083;47.360;9.650;2022-11-20T15:43:07;8.10;97.40
46378;DHT22;32083;47.360;9.650;2022-11-20T15:45:40;8.00;96.90
46378;DHT22;32083;47.360;9.650;2022-11-20T15:53:25;7.90;97.00
46378;DHT22;32083;47.360;9.650;2022-11-20T15:55:51;7.90;97.70
46378;DHT22;32083;47.360;9.650;2022-11-20T15:58:17;7.80;98.00
46378;DHT22;32083;47.360;9.650;2022-11-20T16:00:43;7.70;98.70
46378;DHT22;32083;47.360;9.650;2022-11-20T16:03:14;7.60;98.50
46378;DHT22;32083;47.360;9.650;2022-11-20T16:05:40;7.50;99.10
46378;DHT22;32083;47.360;9.650;2022-11-20T16:08:06;7.40;98.70
46378;DHT22;32083;47.360;9.650;2022-11-20T16:10:33;7.40;98.50
46378;DHT22;32083;47.360;9.650;2022-11-20T16:12:59;7.40;98.90
46378;DHT22;32083;47.360;9.650;2022-11-20T16:15:46;7.30;98.50
46378;DHT22;32083;47.360;9.650;2022-11-20T16:18:18;7.20;99.00
46378;DHT22;32083;47.360;9.650;2022-11-20T16:20:45;7.10;99.50
46378;DHT22;32083;47.360;9.650;2022-11-20T16:23:12;7.10;99.50
46378;DHT22;32083;47.360;9.650;2022-11-20T16:25:38;7.00;99.70
46378;DHT22;32083;47.360;9.650;2022-11-20T16:28:04;7.00;99.90
46378;DHT22;32083;47.360;9.650;2022-11-20T16:30:32;7.00;99.90
46378;DHT22;32083;47.360;9.650;2022-11-20T16:32:59;6.90;99.80
46378;DHT22;32083;47.360;9.650;2022-11-20T16:35:29;6.90;99.90
46378;DHT22;32083;47.360;9.650;2022-11-20T16:37:55;6.80;99.90
46378;DHT22;32083;47.360;9.650;2022-11-20T16:40:22;6.80;99.90
46378;DHT22;32083;47.360;9.650;2022-11-20T16:42:48;6.70;99.90
46378;DHT22;32083;47.360;9.650;2022-11-20T16:45:14;6.70;99.90
46378;DHT22;32083;47.360;9.650;2022-11-20T16:47:41;6.70;99.90
46378;DHT22;32083;47.360;9.650;2022-11-20T16:50:07;6.70;99.90
46378;DHT22;32083;47.360;9.650;2022-11-20T16:52:33;6.60;99.90
46378;DHT22;32083;47.360;9.650;2022-11-20T16:54:59;6.60;99.90
46378;DHT22;32083;47.360;9.650;2022-11-20T16:57:29;6.60;99.90
46378;DHT22;32083;47.360;9.650;2022-11-20T16:59:57;6.50;99.90
46378;DHT22;32083;47.360;9.650;2022-11-20T17:02:23;6.50;99.90
46378;DHT22;32083;47.360;9.650;2022-11-20T17:04:53;6.50;99.90
46378;DHT22;32083;47.360;9.650;2022-11-20T17:07:19;6.40;99.90
46378;DHT22;32083;47.360;9.650;2022-11-20T17:09:45;6.50;99.90
46378;DHT22;32083;47.360;9.650;2022-11-20T17:12:11;6.40;99.90
46378;DHT22;32083;47.360;9.650;2022-11-20T17:14:37;6.40;99.90
46378;DHT22;32083;47.360;9.650;2022-11-20T17:17:03;6.40;99.90
46378;DHT22;32083;47.360;9.650;2022-11-20T17:19:29;6.40;99.90
46378;DHT22;32083;47.360;9.650;2022-11-20T17:21:55;6.30;99.90
46378;DHT22;32083;47.360;9.650;2022-11-20T17:24:21;6.30;99.90
46378;DHT22;32083;47.360;9.650;2022-11-20T17:26:48;6.30;99.90
46378;DHT22;32083;47.360;9.650;2022-11-20T17:29:17;6.30;99.90
46378;DHT22;32083;47.360;9.650;2022-11-20T17:31:44;6.30;99.90
46378;DHT22;32083;47.360;9.650;2022-11-20T17:34:13;6.30;99.90
46378;DHT22;32083;47.360;9.650;2022-11-20T17:36:39;6.30;99.90
46378;DHT22;32083;47.360;9.650;2022-11-20T17:39:13;6.30;99.90
46378;DHT22;32083;47.360;9.650;2022-11-20T17:41:39;6.30;99.90
46378;DHT22;32083;47.360;9.650;2022-11-20T17:44:05;6.30;99.90
46378;DHT22;32083;47.360;9.650;2022-11-20T17:46:33;6.30;99.90
46378;DHT22;32083;47.360;9.650;2022-11-20T17:49:00;6.30;99.90
46378;DHT22;32083;47.360;9.650;2022-11-20T17:51:28;6.20;99.90
46378;DHT22;32083;47.360;9.650;2022-11-20T17:53:57;6.20;99.90
46378;DHT22;32083;47.360;9.650;2022-11-20T17:56:23;6.20;99.90
46378;DHT22;32083;47.360;9.650;2022-11-20T17:59:10;6.20;99.90
46378;DHT22;32083;47.360;9.650;2022-11-20T18:01:36;6.20;99.90
46378;DHT22;32083;47.360;9.650;2022-11-20T18:04:04;6.20;99.90
46378;DHT22;32083;47.360;9.650;2022-11-20T18:06:30;6.20;99.90
46378;DHT22;32083;47.360;9.650;2022-11-20T18:08:58;6.20;99.90
46378;DHT22;32083;47.360;9.650;2022-11-20T18:11:30;6.20;99.90
46378;DHT22;32083;47.360;9.650;2022-11-20T18:13:59;6.20;99.90
46378;DHT22;32083;47.360;9.650;2022-11-20T18:16:50;6.10;99.90
46378;DHT22;32083;47.360;9.650;2022-11-20T18:19:18;6.20;99.90
46378;DHT22;32083;47.360;9.650;2022-11-20T18:21:45;6.20;99.90
46378;DHT22;32083;47.360;9.650;2022-11-20T18:24:11;6.20;99.90
46378;DHT22;32083;47.360;9.650;2022-11-20T18:26:37;6.20;99.90
46378;DHT22;32083;47.360;9.650;2022-11-20T18:29:03;6.20;99.90
46378;DHT22;32083;47.360;9.650;2022-11-20T18:31:30;6.20;99.90
46378;DHT22;32083;47.360;9.650;2022-11-20T18:33:56;6.00;99.90
46378;DHT22;32083;47.360;9.650;2022-11-20T18:36:26;6.10;99.90
46378;DHT22;32083;47.360;9.650;2022-11-20T18:38:55;6.20;99.90
46378;DHT22;32083;47.360;9.650;2022-11-20T18:41:24;6.10;99.90
46378;DHT22;32083;47.360;9.650;2022-11-20T18:44:18;6.10;99.90
46378;DHT22;32083;47.360;9.650;2022-11-20T18:47:03;6.10;99.90
46378;DHT22;32083;47.360;9.650;2022-11-20T18:49:29;6.10;99.90
46378;DHT22;32083;47.360;9.650;2022-11-20T18:51:56;6.00;99.90
46378;DHT22;32083;47.360;9.650;2022-11-20T18:54:22;6.00;99.90
46378;DHT22;32083;47.360;9.650;2022-11-20T18:56:49;6.00;99.90
46378;DHT22;32083;47.360;9.650;2022-11-20T18:59:16;6.00;99.90
46378;DHT22;32083;47.360;9.650;2022-11-20T19:01:42;6.00;99.90
46378;DHT22;32083;47.360;9.650;2022-11-20T19:04:12;6.00;99.90
46378;DHT22;32083;47.360;9.650;2022-11-20T19:06:39;6.00;99.90
46378;DHT22;32083;47.360;9.650;2022-11-20T19:09:07;6.10;99.90
46378;DHT22;32083;47.360;9.650;2022-11-20T19:11:34;6.10;99.90
46378;DHT22;32083;47.360;9.650;2022-11-20T19:14:22;6.20;99.90
46378;DHT22;32083;47.360;9.650;2022-11-20T19:16:48;6.20;99.90
46378;DHT22;32083;47.360;9.650;2022-11-20T19:32:14;6.30;99.90
46378;DHT22;32083;47.360;9.650;2022-11-20T19:39:53;6.30;99.90
